LSZB METAR and TAF | Updated Today

LSZB METAR

Bern Belp Airport

Observation time: 18 min. ago

LSZB 060720Z 13003KT 0800 R14/0375U FZFG BKN002 BKN060 M03/M03 Q1013 NOSIG

Need help? Read our tutorial on how to read METARs or read the parsed version below.

Bern Belp Airport (LSZB) METAR

  • Weather conditions on Mon, 06 Dec 2021 07:20:00 +0000 (18 min. ago):
  • Present conditions: Freezing fog
  • Clouds: Broken sky at 61 meters; broken sky at 1829 meters
  • Visibility: 800 meters
  • Wind: 130 degrees at 3 knots
  • Temperature: -3 celsius
  • Dew point: -3 celsius
  • Pressure: 1013 millibars
  • Remarks: None


Useful to know...

LSZB TAF

Bern Belp Airport

TAF LSZB 060525Z 0606/0615 VRB02KT 3800 BR FEW003 BKN016 PROB30 TEMPO 0606/0609 4500 BKN010 BECMG 0606/0609 8000
Observation time: 2:13 hr. ago
Need help? Read our tutorial on how to read TAFs or read the parsed version below.

Parsed version of TAF for Bern Belp Airport (LSZB)

  • From 06 December at 06:00 UTC, to day 06 of the month at 15:00 UTC
  • Clouds: A few at 91 meters; broken sky at 488 meters
  • Visibility: 3800 meters
  • Wind: Variable at 2
  • Other: Mist
  • Expected to arise temporarily, from 06 December at 06:00 UTC, to day 06 of the month at 09:00 UTC
    Probability of 30%
  • Clouds: Broken sky at 305 meters
  • Visibility: 4500 meters
  • Expected to arise soon, from 06 December at 06:00 UTC, to day 06 of the month at 09:00 UTC
  • Visibility: 8000 meters